createdAt,value
2018-10-18T00:00:40.853Z,22.37
2018-10-18T00:03:12.292Z,24.93
2018-10-18T00:05:43.645Z,21.33
2018-10-18T00:08:14.827Z,23.00
2018-10-18T00:10:46.403Z,27.10
2018-10-18T00:13:18.328Z,27.73
2018-10-18T00:15:49.722Z,25.50
2018-10-18T00:18:21.110Z,25.90
2018-10-18T00:20:52.517Z,25.70
2018-10-18T00:23:23.879Z,26.37
2018-10-18T00:25:55.458Z,19.60
2018-10-18T00:28:27.093Z,21.40
2018-10-18T00:30:58.444Z,22.77
2018-10-18T00:33:29.907Z,25.53
2018-10-18T00:36:01.631Z,25.03
2018-10-18T00:38:33.123Z,22.70
2018-10-18T00:41:04.559Z,26.77
2018-10-18T00:43:35.754Z,26.40
2018-10-18T00:46:07.833Z,23.57
2018-10-18T00:48:39.088Z,28.97
2018-10-18T00:51:10.397Z,22.13
2018-10-18T00:53:41.698Z,21.80
2018-10-18T00:56:13.135Z,28.37
2018-10-18T00:58:44.381Z,25.00
2018-10-18T01:01:15.517Z,20.80
2018-10-18T01:03:46.939Z,19.07
2018-10-18T01:06:18.408Z,19.47
2018-10-18T01:08:50.011Z,28.80
2018-10-18T01:11:21.697Z,20.03
2018-10-18T01:13:53.045Z,23.03
2018-10-18T01:16:24.335Z,23.67
2018-10-18T01:18:55.532Z,23.13
2018-10-18T01:21:26.873Z,25.53
2018-10-18T01:23:58.304Z,25.50
2018-10-18T01:26:29.615Z,27.13
2018-10-18T01:29:01.020Z,23.07
2018-10-18T01:31:32.436Z,23.63
2018-10-18T01:34:04.322Z,24.37
2018-10-18T01:36:35.728Z,21.23
2018-10-18T01:39:07.891Z,23.53
2018-10-18T01:41:40.010Z,26.27
2018-10-18T01:44:11.452Z,32.03
2018-10-18T01:46:42.904Z,30.87
2018-10-18T01:49:14.208Z,28.30
2018-10-18T01:51:45.777Z,26.93
2018-10-18T01:54:17.044Z,24.73
2018-10-18T01:56:48.485Z,19.77
2018-10-18T01:59:19.734Z,19.30
2018-10-18T02:01:51.034Z,25.10
2018-10-18T02:04:22.274Z,21.73
2018-10-18T02:06:53.721Z,22.93
2018-10-18T02:09:25.133Z,30.03
2018-10-18T02:11:56.675Z,22.67
2018-10-18T02:14:27.775Z,25.57
2018-10-18T02:16:59.076Z,24.37
2018-10-18T02:19:30.605Z,24.17
2018-10-18T02:22:02.539Z,25.27
2018-10-18T02:24:33.552Z,20.90
2018-10-18T02:27:05.052Z,21.33
2018-10-18T02:29:36.338Z,22.03
2018-10-18T02:32:08.339Z,23.50
2018-10-18T02:34:39.603Z,26.93
2018-10-18T02:37:11.051Z,22.10
2018-10-18T02:39:42.077Z,28.80
2018-10-18T02:42:13.728Z,21.63
2018-10-18T02:44:45.010Z,23.03
2018-10-18T02:47:16.559Z,21.93
2018-10-18T02:49:47.724Z,23.00
2018-10-18T02:52:18.943Z,19.23
2018-10-18T02:54:50.380Z,24.13
2018-10-18T02:57:21.831Z,23.13
2018-10-18T02:59:53.119Z,23.87
2018-10-18T03:02:24.634Z,23.40
2018-10-18T03:04:55.890Z,27.30
2018-10-18T03:07:27.283Z,20.77
2018-10-18T03:09:58.694Z,19.10
2018-10-18T03:12:29.924Z,25.47
2018-10-18T03:15:00.991Z,24.03
2018-10-18T03:17:32.232Z,22.63
2018-10-18T03:20:03.771Z,26.00
2018-10-18T03:22:35.344Z,21.77
2018-10-18T03:25:07.544Z,24.57
2018-10-18T03:27:39.732Z,21.10
2018-10-18T03:30:11.350Z,21.90
2018-10-18T03:32:42.914Z,20.07
2018-10-18T03:35:14.627Z,21.63
2018-10-18T03:37:45.865Z,22.73
2018-10-18T03:40:17.232Z,20.97
2018-10-18T03:42:48.887Z,26.73
2018-10-18T03:45:20.189Z,19.93
2018-10-18T03:47:51.632Z,21.27
2018-10-18T03:50:22.915Z,20.97
2018-10-18T03:52:54.609Z,22.93
2018-10-18T03:55:26.036Z,18.13
2018-10-18T03:57:57.406Z,22.80
2018-10-18T04:00:28.686Z,21.33
2018-10-18T04:03:00.141Z,22.03
2018-10-18T04:05:31.386Z,23.73
2018-10-18T04:08:02.983Z,20.70
2018-10-18T04:10:34.088Z,23.87
2018-10-18T04:13:05.816Z,26.40
2018-10-18T04:15:37.210Z,19.27
2018-10-18T04:18:08.798Z,25.87
2018-10-18T04:20:40.014Z,22.53
2018-10-18T04:23:11.560Z,32.37
2018-10-18T04:25:42.966Z,37.13
2018-10-18T04:28:14.183Z,21.57
2018-10-18T04:30:45.833Z,25.10
2018-10-18T04:33:17.080Z,23.47
2018-10-18T04:35:48.587Z,25.90
2018-10-18T04:38:20.109Z,22.40
2018-10-18T04:40:51.405Z,24.97
2018-10-18T04:43:22.500Z,25.77
2018-10-18T04:45:53.854Z,27.77
2018-10-18T04:48:25.552Z,22.50
2018-10-18T04:50:57.125Z,25.73
2018-10-18T04:53:29.320Z,27.47
2018-10-18T04:56:01.023Z,22.37
2018-10-18T04:58:32.396Z,28.60
2018-10-18T05:01:03.712Z,23.63
2018-10-18T05:03:35.277Z,24.10
2018-10-18T05:06:07.181Z,23.50
2018-10-18T05:08:38.741Z,25.03
2018-10-18T05:11:10.096Z,26.57
2018-10-18T05:13:41.371Z,23.53
2018-10-18T05:16:12.952Z,32.43
2018-10-18T05:18:44.241Z,23.50
2018-10-18T05:21:15.432Z,32.30
2018-10-18T05:23:46.855Z,22.07
2018-10-18T05:26:18.260Z,25.10
2018-10-18T05:28:49.488Z,24.53
2018-10-18T05:31:20.698Z,21.03
2018-10-18T05:33:52.084Z,25.03
2018-10-18T05:36:23.604Z,22.67
2018-10-18T05:38:55.231Z,33.50
2018-10-18T05:41:27.357Z,24.40
2018-10-18T05:43:58.768Z,23.17
2018-10-18T05:46:30.120Z,20.57
2018-10-18T05:49:01.879Z,20.10
2018-10-18T05:51:33.153Z,21.37
2018-10-18T05:54:04.734Z,20.63
2018-10-18T05:56:36.181Z,23.73
2018-10-18T05:59:07.753Z,41.93
2018-10-18T06:01:39.039Z,25.57
2018-10-18T06:04:10.239Z,29.73
2018-10-18T06:06:41.671Z,26.53
2018-10-18T06:09:14.253Z,29.77
2018-10-18T06:11:45.806Z,20.93
2018-10-18T06:14:17.251Z,133.90
2018-10-18T06:16:48.610Z,95.13
2018-10-18T06:19:20.800Z,69.93
2018-10-18T06:21:52.210Z,59.20
2018-10-18T06:24:23.561Z,43.77
2018-10-18T06:26:55.221Z,40.83
2018-10-18T06:29:27.402Z,22.37
2018-10-18T06:31:58.855Z,26.90
2018-10-18T06:34:30.134Z,25.10
2018-10-18T06:37:01.591Z,25.37
2018-10-18T06:39:33.017Z,23.43
2018-10-18T06:42:04.469Z,25.73
2018-10-18T06:44:35.921Z,24.97
2018-10-18T06:47:07.665Z,23.00
2018-10-18T06:49:39.110Z,25.77
2018-10-18T06:52:10.384Z,23.43
2018-10-18T06:54:41.806Z,23.10
2018-10-18T06:57:13.508Z,24.43
2018-10-18T06:59:45.222Z,25.60
2018-10-18T07:02:16.533Z,23.53
2018-10-18T07:04:47.703Z,21.37
2018-10-18T07:07:18.919Z,21.17
2018-10-18T07:09:50.410Z,22.27
2018-10-18T07:12:21.954Z,22.83
2018-10-18T07:14:53.104Z,21.27
2018-10-18T07:17:24.879Z,20.43
2018-10-18T07:19:56.172Z,30.20
2018-10-18T07:22:27.567Z,22.57
2018-10-18T07:24:59.104Z,23.23
2018-10-18T07:27:30.522Z,18.87
2018-10-18T07:30:02.003Z,24.00
2018-10-18T07:32:33.333Z,22.27
2018-10-18T07:35:04.679Z,25.37
2018-10-18T07:37:35.935Z,20.67
2018-10-18T07:40:09.216Z,21.93
2018-10-18T07:42:40.565Z,29.27
2018-10-18T07:45:13.242Z,24.93
2018-10-18T07:47:45.055Z,22.87
2018-10-18T07:50:16.512Z,23.70
2018-10-18T07:52:47.868Z,19.47
2018-10-18T07:55:19.288Z,25.50
2018-10-18T07:57:50.810Z,25.60
2018-10-18T08:00:22.446Z,21.23
2018-10-18T08:02:53.783Z,30.27
2018-10-18T08:05:25.313Z,30.73
2018-10-18T08:07:56.908Z,23.57
2018-10-18T08:10:28.391Z,21.07
2018-10-18T08:13:00.041Z,27.97
2018-10-18T08:15:31.144Z,33.80
2018-10-18T08:18:02.751Z,36.97
2018-10-18T08:20:33.932Z,32.47
2018-10-18T08:23:05.617Z,30.43
2018-10-18T08:25:36.786Z,22.23
2018-10-18T08:28:08.192Z,32.60
2018-10-18T08:30:39.789Z,26.27
2018-10-18T08:33:11.252Z,22.63
2018-10-18T08:35:42.611Z,19.10
2018-10-18T08:38:13.838Z,20.33
2018-10-18T08:40:45.052Z,20.27
2018-10-18T08:43:16.403Z,18.83
2018-10-18T08:45:47.895Z,23.73
2018-10-18T08:48:19.390Z,24.87
2018-10-18T08:50:50.834Z,20.87
2018-10-18T08:53:22.413Z,19.00
2018-10-18T08:55:53.913Z,20.53
2018-10-18T08:58:25.354Z,19.30
2018-10-18T09:00:56.626Z,16.50
2018-10-18T09:03:27.904Z,21.27
2018-10-18T09:05:59.290Z,20.07
2018-10-18T09:08:30.953Z,21.70
2018-10-18T09:11:02.408Z,23.20
2018-10-18T09:13:33.653Z,16.37
2018-10-18T09:16:05.133Z,18.47
2018-10-18T09:18:36.510Z,15.03
2018-10-18T09:21:08.309Z,19.73
2018-10-18T09:23:40.134Z,17.30
2018-10-18T09:26:11.767Z,24.60
2018-10-18T09:28:43.257Z,19.73
2018-10-18T09:31:14.904Z,18.17
2018-10-18T09:33:46.063Z,18.90
2018-10-18T09:36:17.426Z,22.50
2018-10-18T09:38:48.946Z,21.17
2018-10-18T09:41:20.418Z,23.23
2018-10-18T09:43:55.726Z,24.83
2018-10-18T09:46:27.694Z,17.60
2018-10-18T09:48:59.404Z,16.80
2018-10-18T09:51:30.948Z,17.17
2018-10-18T09:54:03.328Z,18.20
2018-10-18T09:56:34.767Z,22.40
2018-10-18T09:59:06.176Z,14.47
2018-10-18T10:01:42.628Z,18.42
2018-10-18T10:04:14.142Z,14.38
2018-10-18T10:06:45.650Z,22.07
2018-10-18T10:09:16.900Z,24.07
2018-10-18T10:11:48.365Z,18.70
2018-10-18T10:14:19.960Z,17.80
2018-10-18T10:16:51.389Z,19.70
2018-10-18T10:19:23.414Z,20.77
2018-10-18T10:21:54.732Z,19.13
2018-10-18T10:24:26.029Z,20.02
2018-10-18T10:26:57.783Z,21.57
2018-10-18T10:29:29.436Z,21.07
2018-10-18T10:32:00.915Z,17.98
2018-10-18T10:34:32.032Z,19.42
2018-10-18T10:37:03.724Z,25.40
2018-10-18T10:39:35.130Z,19.55
2018-10-18T10:42:06.999Z,23.90
2018-10-18T10:44:38.695Z,23.77
2018-10-18T10:47:10.220Z,24.77
2018-10-18T10:49:41.855Z,24.13
2018-10-18T10:52:13.289Z,22.07
2018-10-18T10:54:44.581Z,19.10
2018-10-18T10:57:16.248Z,22.97
2018-10-18T10:59:47.639Z,16.47
2018-10-18T11:02:19.105Z,16.87
2018-10-18T11:04:50.369Z,14.50
2018-10-18T11:07:21.988Z,23.07
2018-10-18T11:09:53.405Z,16.05
2018-10-18T11:12:24.867Z,23.55
2018-10-18T11:14:56.274Z,16.97
2018-10-18T11:17:27.791Z,15.58
2018-10-18T11:19:59.164Z,16.82
2018-10-18T11:22:30.437Z,16.17
2018-10-18T11:25:01.946Z,17.77
2018-10-18T11:27:33.232Z,21.00
2018-10-18T11:30:04.913Z,16.00
2018-10-18T11:32:36.137Z,18.62
2018-10-18T11:35:07.863Z,20.02
2018-10-18T11:37:39.419Z,21.80
2018-10-18T11:40:10.772Z,27.75
2018-10-18T11:42:42.398Z,22.22
2018-10-18T11:45:13.442Z,26.85
2018-10-18T11:47:44.700Z,19.00
2018-10-18T11:50:16.170Z,23.93
2018-10-18T11:52:47.722Z,20.90
2018-10-18T11:55:18.844Z,21.90
2018-10-18T11:57:50.342Z,15.93
2018-10-18T12:00:21.705Z,17.87
2018-10-18T12:02:53.052Z,15.13
2018-10-18T12:05:24.476Z,20.93
2018-10-18T12:07:55.743Z,17.37
2018-10-18T12:10:27.162Z,17.40
2018-10-18T12:12:58.733Z,17.63
2018-10-18T12:15:30.640Z,18.13
2018-10-18T12:18:01.866Z,21.00
2018-10-18T12:20:33.249Z,16.05
2018-10-18T12:23:04.877Z,17.67
2018-10-18T12:25:36.311Z,19.63
2018-10-18T12:28:07.539Z,19.80
2018-10-18T12:30:39.083Z,22.35
2018-10-18T12:33:10.713Z,16.33
2018-10-18T12:35:42.360Z,17.55
2018-10-18T12:38:13.605Z,20.73
2018-10-18T12:40:45.263Z,19.03
2018-10-18T12:43:16.694Z,18.37
2018-10-18T12:45:48.326Z,15.23
2018-10-18T12:48:20.173Z,19.30
2018-10-18T12:50:51.623Z,24.13
2018-10-18T12:53:23.129Z,21.33
2018-10-18T12:55:54.727Z,16.50
2018-10-18T12:58:26.245Z,20.03
2018-10-18T13:00:57.681Z,17.33
2018-10-18T13:03:29.458Z,21.50
2018-10-18T13:06:01.176Z,18.27
2018-10-18T13:08:32.644Z,19.63
2018-10-18T13:11:04.208Z,16.17
2018-10-18T13:13:36.021Z,17.97
2018-10-18T13:16:07.754Z,15.57
2018-10-18T13:18:39.834Z,19.37
2018-10-18T13:21:11.053Z,28.27
2018-10-18T13:23:43.249Z,17.13
2018-10-18T13:26:15.677Z,25.83
2018-10-18T13:28:47.182Z,20.37
2018-10-18T13:31:19.053Z,18.77
2018-10-18T13:33:51.054Z,17.43
2018-10-18T13:36:22.547Z,13.70
2018-10-18T13:38:54.359Z,12.60
2018-10-18T13:41:26.254Z,17.00
2018-10-18T13:43:57.876Z,28.90
2018-10-18T13:46:29.909Z,16.53
2018-10-18T13:49:01.734Z,27.03
2018-10-18T13:51:33.492Z,22.17
2018-10-18T13:54:04.946Z,23.83
2018-10-18T13:56:36.457Z,20.10
2018-10-18T13:59:17.584Z,22.20
2018-10-18T14:01:48.887Z,19.50
2018-10-18T14:04:20.183Z,16.50
2018-10-18T14:06:51.716Z,22.57
2018-10-18T14:09:23.187Z,36.27
2018-10-18T14:11:54.615Z,17.83
2018-10-18T14:14:26.071Z,21.13
2018-10-18T14:16:58.184Z,24.77
2018-10-18T14:19:29.641Z,23.83
2018-10-18T14:22:00.937Z,20.67
2018-10-18T14:24:32.486Z,17.97
2018-10-18T14:27:03.937Z,16.43
2018-10-18T14:29:35.542Z,17.00
2018-10-18T14:32:07.275Z,23.77
2018-10-18T14:34:38.730Z,19.63
2018-10-18T14:37:10.066Z,19.97
2018-10-18T14:39:41.272Z,28.67
2018-10-18T14:42:12.391Z,19.00
2018-10-18T14:44:44.138Z,19.60
2018-10-18T14:47:15.709Z,23.53
2018-10-18T14:49:47.613Z,19.27
2018-10-18T14:52:19.342Z,16.40
2018-10-18T14:54:51.301Z,24.33
2018-10-18T14:57:22.901Z,18.43
2018-10-18T14:59:54.286Z,15.07
2018-10-18T15:02:25.742Z,14.37
2018-10-18T15:04:57.223Z,20.73
2018-10-18T15:07:28.709Z,17.80
2018-10-18T15:10:00.231Z,21.00
2018-10-18T15:12:31.719Z,21.33
2018-10-18T15:15:03.460Z,18.07
2018-10-18T15:17:34.770Z,15.27
2018-10-18T15:20:07.346Z,30.03
2018-10-18T15:22:39.266Z,22.83
2018-10-18T15:25:11.688Z,19.67
2018-10-18T15:27:43.634Z,17.20
2018-10-18T15:30:15.361Z,18.53
2018-10-18T15:32:46.659Z,17.23
2018-10-18T15:35:18.367Z,21.60
2018-10-18T15:37:50.247Z,17.50
2018-10-18T15:40:21.593Z,17.87
2018-10-18T15:42:53.421Z,22.53
2018-10-18T15:45:25.101Z,19.00
2018-10-18T15:47:56.296Z,18.10
2018-10-18T15:50:27.907Z,17.93
2018-10-18T15:53:00.288Z,17.90
2018-10-18T15:55:31.969Z,14.50
2018-10-18T15:58:03.837Z,12.50
2018-10-18T16:00:35.512Z,19.63
2018-10-18T16:03:07.361Z,16.20
2018-10-18T16:05:38.741Z,17.43
2018-10-18T16:08:10.247Z,16.40
2018-10-18T16:10:41.629Z,15.90
2018-10-18T16:13:13.269Z,16.10
2018-10-18T16:15:44.537Z,17.50
2018-10-18T16:18:15.753Z,18.67
2018-10-18T16:20:47.509Z,13.63
2018-10-18T16:23:19.458Z,18.50
2018-10-18T16:25:50.826Z,17.23
2018-10-18T16:28:22.398Z,16.20
2018-10-18T16:30:53.960Z,16.20
2018-10-18T16:33:25.707Z,18.00
2018-10-18T16:35:57.148Z,13.50
2018-10-18T16:38:28.792Z,19.80
2018-10-18T16:41:00.287Z,20.03
2018-10-18T16:43:31.614Z,18.10
2018-10-18T16:46:03.339Z,15.53
2018-10-18T16:48:35.288Z,20.23
2018-10-18T16:51:06.919Z,15.87
2018-10-18T16:53:38.584Z,15.00
2018-10-18T16:56:10.462Z,16.83
2018-10-18T16:58:41.903Z,23.20
2018-10-18T17:01:13.385Z,20.03
2018-10-18T17:03:44.637Z,14.20
2018-10-18T17:06:15.886Z,14.77
2018-10-18T17:08:47.624Z,13.80
2018-10-18T17:11:19.089Z,15.17
2018-10-18T17:13:50.494Z,25.73
2018-10-18T17:16:21.880Z,19.20
2018-10-18T17:18:53.287Z,27.43
2018-10-18T17:21:24.828Z,31.67
2018-10-18T17:23:56.361Z,21.70
2018-10-18T17:26:27.892Z,24.17
2018-10-18T17:28:59.431Z,15.63
2018-10-18T17:31:31.062Z,16.40
2018-10-18T17:34:02.592Z,14.03
2018-10-18T17:36:34.344Z,16.90
2018-10-18T17:39:07.365Z,26.47
2018-10-18T17:41:39.109Z,27.00
2018-10-18T17:44:10.625Z,23.73
2018-10-18T17:46:42.218Z,32.77
2018-10-18T17:49:13.721Z,19.87
2018-10-18T17:51:45.496Z,13.73
2018-10-18T17:54:17.126Z,16.30
2018-10-18T17:56:49.140Z,13.50
2018-10-18T17:59:20.367Z,21.47
2018-10-18T18:01:51.922Z,12.93
2018-10-18T18:04:23.539Z,16.47
2018-10-18T18:06:55.209Z,14.83
2018-10-18T18:09:26.652Z,17.63
2018-10-18T18:11:58.476Z,15.20
2018-10-18T18:14:29.937Z,15.53
2018-10-18T18:17:01.671Z,15.73
2018-10-18T18:19:33.517Z,21.17
2018-10-18T18:22:05.290Z,14.83
2018-10-18T18:24:36.672Z,14.27
2018-10-18T18:27:08.048Z,16.60
2018-10-18T18:29:39.523Z,13.30
2018-10-18T18:32:11.063Z,12.33
2018-10-18T18:34:42.987Z,14.40
2018-10-18T18:37:14.509Z,13.97
2018-10-18T18:39:46.949Z,13.03
2018-10-18T18:42:18.815Z,18.63
2018-10-18T18:44:53.378Z,14.47
2018-10-18T18:47:25.002Z,14.40
2018-10-18T18:49:56.316Z,45.87
2018-10-18T18:52:28.067Z,26.80
2018-10-18T18:54:59.765Z,13.50
2018-10-18T18:57:31.409Z,10.77
2018-10-18T19:00:03.620Z,11.03
2018-10-18T19:02:34.952Z,12.80
2018-10-18T19:05:07.060Z,16.13
2018-10-18T19:07:38.441Z,14.03
2018-10-18T19:10:10.495Z,14.77
2018-10-18T19:12:41.756Z,11.30
2018-10-18T19:15:13.148Z,12.03
2018-10-18T19:17:45.328Z,11.17
2018-10-18T19:20:16.888Z,12.10
2018-10-18T19:22:48.657Z,14.27
2018-10-18T19:25:20.432Z,11.73
2018-10-18T19:27:51.909Z,12.80
2018-10-18T19:30:23.659Z,32.20
2018-10-18T19:32:55.136Z,14.57
2018-10-18T19:35:26.803Z,11.57
2018-10-18T19:37:58.760Z,16.20
2018-10-18T19:40:30.101Z,15.70
2018-10-18T19:43:01.562Z,20.33
2018-10-18T19:45:33.204Z,16.87
2018-10-18T19:48:04.723Z,16.63
2018-10-18T19:50:36.128Z,21.00
2018-10-18T19:53:08.172Z,15.67
2018-10-18T19:55:39.399Z,21.27
2018-10-18T19:58:11.114Z,19.90
2018-10-18T20:00:42.463Z,16.03
2018-10-18T20:03:13.757Z,18.97
2018-10-18T20:05:45.180Z,19.83
2018-10-18T20:08:16.743Z,18.50
2018-10-18T20:10:48.170Z,17.50
2018-10-18T20:13:19.789Z,17.73
2018-10-18T20:15:51.443Z,20.40
2018-10-18T20:18:23.044Z,20.40
2018-10-18T20:20:54.507Z,23.30
2018-10-18T20:23:26.148Z,20.53
2018-10-18T20:25:57.938Z,27.87
2018-10-18T20:28:29.155Z,23.70
2018-10-18T20:31:00.663Z,22.40
2018-10-18T20:33:31.868Z,21.53
2018-10-18T20:36:03.403Z,20.93
2018-10-18T20:38:34.738Z,24.30
2018-10-18T20:41:06.349Z,26.83
2018-10-18T20:43:37.752Z,28.20
2018-10-18T20:46:09.278Z,31.47
2018-10-18T20:48:40.626Z,31.53
2018-10-18T20:51:12.269Z,31.40
2018-10-18T20:53:43.631Z,32.57
2018-10-18T20:56:15.151Z,23.33
2018-10-18T20:58:46.736Z,32.47
2018-10-18T21:01:18.150Z,38.37
2018-10-18T21:03:49.566Z,38.80
2018-10-18T21:06:20.888Z,40.33
2018-10-18T21:08:52.208Z,42.27
2018-10-18T21:11:23.683Z,37.37
2018-10-18T21:13:55.068Z,42.50
2018-10-18T21:16:26.472Z,45.43
2018-10-18T21:18:58.058Z,40.60
2018-10-18T21:21:29.603Z,37.83
2018-10-18T21:24:00.814Z,34.97
2018-10-18T21:26:32.333Z,49.47
2018-10-18T21:29:03.895Z,31.17
2018-10-18T21:31:35.385Z,53.93
2018-10-18T21:34:07.013Z,49.87
2018-10-18T21:36:38.277Z,61.60
2018-10-18T21:39:09.856Z,34.20
2018-10-18T21:41:41.316Z,34.30
2018-10-18T21:44:12.861Z,74.10
2018-10-18T21:46:44.361Z,72.13
2018-10-18T21:49:15.689Z,41.03
2018-10-18T21:51:47.101Z,38.23
2018-10-18T21:54:18.914Z,32.10
2018-10-18T21:56:50.477Z,36.70
2018-10-18T21:59:22.238Z,37.03
2018-10-18T22:01:53.576Z,31.43
2018-10-18T22:04:25.249Z,39.00
2018-10-18T22:06:56.904Z,34.03
2018-10-18T22:09:28.513Z,33.43
2018-10-18T22:12:00.314Z,31.53
2018-10-18T22:14:32.213Z,35.27
2018-10-18T22:17:04.487Z,37.00
2018-10-18T22:19:35.772Z,29.63
2018-10-18T22:22:07.192Z,31.87
2018-10-18T22:24:38.505Z,29.60
2018-10-18T22:27:10.210Z,28.77
2018-10-18T22:29:41.625Z,34.27
2018-10-18T22:32:12.867Z,30.70
2018-10-18T22:34:44.416Z,33.33
2018-10-18T22:37:15.890Z,27.30
2018-10-18T22:39:47.516Z,31.07
2018-10-18T22:42:19.269Z,32.00
2018-10-18T22:44:50.960Z,30.43
2018-10-18T22:47:22.279Z,35.73
2018-10-18T22:49:53.925Z,35.13
2018-10-18T22:52:25.448Z,37.50
2018-10-18T22:54:56.768Z,29.07
2018-10-18T22:57:28.862Z,30.97
2018-10-18T23:00:00.364Z,29.93
2018-10-18T23:02:32.047Z,30.10
2018-10-18T23:05:03.636Z,31.20
2018-10-18T23:07:35.067Z,28.80
2018-10-18T23:10:07.034Z,25.77
2018-10-18T23:12:38.494Z,30.83
2018-10-18T23:15:11.820Z,25.73
2018-10-18T23:17:43.574Z,28.57
2018-10-18T23:20:15.236Z,26.50
2018-10-18T23:22:46.988Z,24.70
2018-10-18T23:25:18.608Z,24.67
2018-10-18T23:27:49.875Z,24.33
2018-10-18T23:30:21.453Z,23.47
2018-10-18T23:32:52.723Z,26.63
2018-10-18T23:35:24.374Z,26.20
2018-10-18T23:37:55.887Z,20.70
2018-10-18T23:40:27.231Z,20.77
2018-10-18T23:42:58.497Z,19.50
2018-10-18T23:45:30.040Z,19.73
2018-10-18T23:48:01.897Z,18.20
2018-10-18T23:50:33.272Z,23.63
2018-10-18T23:53:05.121Z,25.23
2018-10-18T23:55:36.591Z,20.60
2018-10-18T23:58:08.313Z,23.40
